Tropical Cyclones
[Index]
Main Index Home Page Stock Weather Photos Extreme Storms Discussion Storm News and Storm Chasing Reports Tropical Cyclones / Hurricanes / Typhoons Weather Data and Links Wild Fires / Bushfires Weather Observation Techniques Weather Picture Catalogue Tornado Pictures and Reports Stock Video Footage and DVDs for sale
Season 2011-2012 Tropical Cyclone ALENGA Track Map
Season 2011-2012 Summaries: [BoM-AU] [JTWC-AU] [JTWC-SIO] [JTWC-SPAC] [JTWC-SH]
<<- Previous TC | BoM 2011-2012 Season | Next TC ->>

click for intensity scale information  Lat/long Grid: Show Hide

 Date Labels: Show Hide

Bureau of Meteorology Tropical Cyclone Data

Name: ALENGA
Number: 952 / 201112_01

02 Dec 2011 00:00 UTC to 09 Dec 2011 12:00 UTC

    date/time    lat    long    hPa   cat  kts
2011-12-02 00    5.5    98.4   1006         15          
2011-12-02 06    7.0    98.1   1006         15          
2011-12-02 12    7.4    97.7   1006         15          
2011-12-02 18    7.7    97.4   1005         20          
2011-12-03 00    8.2    97.0   1004         20          
2011-12-03 06    8.9    96.3   1004         20          
2011-12-03 12    9.7    95.3   1004         20          
2011-12-03 18   10.5    93.7   1004         20          
2011-12-04 00   11.2    92.3   1002         25          
2011-12-04 06   11.7    91.0   1001         27          
2011-12-04 12   12.1    89.9   1001         27          
2011-12-04 18   12.1    88.9    999         33          
2011-12-05 00   12.2    88.1    997         40          
2011-12-05 06   12.2    87.7    996         42          
2011-12-05 12   12.2    87.6    995    1    42          
2011-12-05 18   12.4    87.6    994    1    45          
2011-12-06 00   12.7    87.7    995    1    40          
2011-12-06 06   13.1    87.6    996         37          
2011-12-06 12   13.5    87.9    997         35          
2011-12-06 18   13.7    88.3    997         35          
2011-12-07 00   14.0    89.3    993    1    45          
2011-12-07 06   14.3    89.9    986    1    55          
2011-12-07 12   14.8    91.6    985    2    60          
2011-12-07 18   15.5    93.3    981    2    65          
2011-12-08 00   16.2    94.9    975    2    70          
2011-12-08 06   17.3    96.8    972    2    75          
2011-12-08 12   18.5    98.4    973    2    70          
2011-12-08 18   19.2    99.7    980    2    60          
2011-12-09 00   20.6   101.6    988    1    50          
2011-12-09 06   21.2   102.4    995    1    30          
2011-12-09 12   21.5   102.7    997         30          
Winds are 10-min average.

Tropical cyclone tracks developed by Michael Bath using data from the Bureau of Meteorology and Google Maps.


[Australian Severe Weather index] [Copyright Notice] [Email Contacts] [Search This Site] [Privacy Policy]
Document: tropical_cyclone_alenga.htm Updated: 29 June 2017